Time;durP1;ratioP1;P1;durP2;ratioP2;P2;SDS_P1;SDS_P2;PMS_P1;PMS_P2;Temp;Humidity;BMP_temperature;BMP_pressure;BME280_temperature;BME280_humidity;BME280_pressure;Samples;Min_cycle;Max_cycle;Signal;HPM_P1;HPM_P2
2023/10/05 00:04:39;;;;;;;11.20;4.57;;;;;;;11.71;100.00;101181.63;5101780;28;20038;-76
2023/10/05 00:07:23;;;;;;;5.95;3.80;;;;;;;11.69;100.00;101179.22;5111389;28;20036;-77
2023/10/05 00:09:49;;;;;;;10.00;4.20;;;;;;;11.67;100.00;101169.50;5111691;28;20047;-77
2023/10/05 00:12:22;;;;;;;9.45;3.50;;;;;;;11.70;100.00;101180.00;5092631;28;20136;-78
2023/10/05 00:14:55;;;;;;;10.02;4.40;;;;;;;11.74;100.00;101186.38;5095227;28;20095;-78
2023/10/05 00:17:22;;;;;;;7.55;3.83;;;;;;;11.73;100.00;101184.78;5074209;28;20032;-76
2023/10/05 00:19:48;;;;;;;10.88;4.20;;;;;;;11.68;100.00;101169.03;5102447;28;20099;-78
2023/10/05 00:22:14;;;;;;;14.63;5.68;;;;;;;11.72;100.00;101175.38;5095468;28;20055;-78
2023/10/05 00:24:42;;;;;;;12.40;4.53;;;;;;;11.70;100.00;101162.84;5093309;28;20064;-77
2023/10/05 00:27:09;;;;;;;10.00;4.30;;;;;;;11.69;100.00;101173.50;5077465;28;20027;-78
2023/10/05 00:29:41;;;;;;;9.27;4.25;;;;;;;11.64;100.00;101171.28;5077572;28;20020;-78
2023/10/05 00:32:16;;;;;;;12.65;4.25;;;;;;;11.61;100.00;101165.72;5077240;28;20027;-78
2023/10/05 00:34:44;;;;;;;10.23;4.43;;;;;;;11.46;100.00;101148.41;5078510;28;20023;-77
2023/10/05 00:37:11;;;;;;;8.68;4.45;;;;;;;11.56;100.00;101163.50;5077564;28;20028;-77
2023/10/05 00:39:37;;;;;;;12.55;3.83;;;;;;;11.52;100.00;101160.00;5076698;28;20034;-75
2023/10/05 00:42:16;;;;;;;11.43;4.43;;;;;;;11.52;100.00;101155.06;5076603;28;20161;-76
2023/10/05 00:44:43;;;;;;;8.32;3.53;;;;;;;11.54;100.00;101160.31;5095031;28;20103;-79
2023/10/05 00:47:14;;;;;;;10.85;4.43;;;;;;;11.59;100.00;101171.13;5094223;28;20054;-77
2023/10/05 00:49:52;;;;;;;10.43;4.15;;;;;;;11.55;100.00;101156.19;5094536;28;20024;-77
2023/10/05 00:52:24;;;;;;;7.68;3.80;;;;;;;11.64;100.00;101161.88;5075008;28;20023;-77
2023/10/05 00:55:10;;;;;;;11.35;4.68;;;;;;;11.66;100.00;101165.88;5075844;28;20527;-79
2023/10/05 00:57:37;;;;;;;8.75;4.43;;;;;;;11.61;100.00;101155.06;5072733;28;20040;-77
2023/10/05 01:00:28;;;;;;;7.32;3.47;;;;;;;11.63;100.00;101157.44;5072678;28;20523;-77
2023/10/05 01:03:17;;;;;;;8.93;3.42;;;;;;;11.58;100.00;101152.34;5072390;28;20051;-77
2023/10/05 01:06:49;;;;;;;10.15;4.00;;;;;;;11.53;100.00;101150.13;5071883;28;20036;-76
2023/10/05 01:09:07;;;;;;;13.57;3.80;;;;;;;11.45;100.00;101152.53;5069476;28;20035;-77
2023/10/05 01:11:42;;;;;;;9.65;4.05;;;;;;;11.36;100.00;101139.03;5070385;28;20503;-77
2023/10/05 01:14:08;;;;;;;9.43;4.07;;;;;;;11.31;100.00;101136.00;5070334;28;20040;-78
2023/10/05 01:16:38;;;;;;;8.57;4.10;;;;;;;11.22;100.00;101136.78;5071488;28;20055;-78
2023/10/05 01:19:07;;;;;;;8.63;3.92;;;;;;;11.07;100.00;101129.31;5071442;28;20039;-77
2023/10/05 01:21:34;;;;;;;9.48;4.45;;;;;;;11.11;100.00;101139.34;5071382;28;20530;-78
2023/10/05 01:24:02;;;;;;;9.35;3.83;;;;;;;11.03;100.00;101138.03;5072184;28;20037;-77
2023/10/05 01:26:29;;;;;;;18.23;4.15;;;;;;;11.01;100.00;101137.72;5073176;28;20051;-76
2023/10/05 01:28:58;;;;;;;8.95;4.05;;;;;;;10.95;100.00;101137.56;5072612;28;20075;-77
2023/10/05 01:31:25;;;;;;;10.05;3.67;;;;;;;10.91;100.00;101145.50;5072631;28;20036;-77
2023/10/05 01:33:51;;;;;;;7.30;3.47;;;;;;;10.87;100.00;101149.78;5073798;28;20036;-77
2023/10/05 01:36:22;;;;;;;7.28;3.55;;;;;;;10.85;100.00;101138.03;5073247;28;20075;-78
2023/10/05 01:39:08;;;;;;;5.70;3.67;;;;;;;10.69;100.00;101130.53;5070859;28;20032;-77
2023/10/05 01:41:34;;;;;;;8.18;4.30;;;;;;;10.76;100.00;101135.16;5073373;28;20384;-77
2023/10/05 01:44:00;;;;;;;7.45;3.22;;;;;;;10.71;100.00;101138.63;5069922;28;20131;-77
2023/10/05 01:46:26;;;;;;;7.03;4.05;;;;;;;10.69;100.00;101132.59;5071727;28;20036;-78
2023/10/05 01:48:52;;;;;;;11.40;3.95;;;;;;;10.67;100.00;101129.44;5073301;28;20531;-77
2023/10/05 01:51:23;;;;;;;8.77;3.42;;;;;;;10.64;100.00;101130.34;5073885;28;20032;-77
2023/10/05 01:53:56;;;;;;;13.35;4.32;;;;;;;10.61;100.00;101131.31;5073696;28;20047;-76
2023/10/05 01:56:23;;;;;;;8.88;3.63;;;;;;;10.55;100.00;101119.72;5082915;28;20474;-77
2023/10/05 01:58:51;;;;;;;8.70;3.65;;;;;;;10.47;100.00;101107.81;5093292;28;20039;-78
2023/10/05 02:01:27;;;;;;;8.48;3.95;;;;;;;10.46;100.00;101108.25;5093389;28;20070;-77
2023/10/05 02:03:57;;;;;;;6.28;3.40;;;;;;;10.47;100.00;101116.38;5093155;28;20080;-76
2023/10/05 02:06:28;;;;;;;6.07;3.85;;;;;;;10.44;100.00;101108.72;5076866;28;20028;-77
2023/10/05 02:08:55;;;;;;;6.50;3.47;;;;;;;10.42;100.00;101110.47;5076786;28;20384;-77
2023/10/05 02:11:24;;;;;;;7.40;4.07;;;;;;;10.39;100.00;101119.97;5094051;28;20044;-78
2023/10/05 02:13:52;;;;;;;6.38;3.25;;;;;;;10.39;100.00;101131.41;5077836;28;20039;-77
2023/10/05 02:16:22;;;;;;;11.02;3.17;;;;;;;10.24;100.00;101107.53;5095442;28;20372;-77
2023/10/05 02:18:50;;;;;;;9.43;3.53;;;;;;;10.38;100.00;101129.84;5095918;28;20036;-77
2023/10/05 02:24:18;;;;;;;7.60;3.88;;;;;;;10.35;100.00;101119.34;5082162;28;20507;-77
2023/10/05 02:29:43;;;;;;;12.60;3.67;;;;;;;10.32;100.00;101126.81;5080507;28;20032;-76
2023/10/05 02:32:14;;;;;;;9.80;4.13;;;;;;;10.31;100.00;101121.56;5079839;28;20023;-78
2023/10/05 02:37:28;;;;;;;8.70;3.70;;;;;;;10.26;100.00;101122.16;5081953;28;20093;-79
2023/10/05 02:39:57;;;;;;;5.47;2.95;;;;;;;10.28;100.00;101122.50;5096842;28;20035;-78
2023/10/05 02:42:29;;;;;;;7.85;3.70;;;;;;;10.27;100.00;101132.34;5080258;28;20468;-79
2023/10/05 02:45:02;;;;;;;8.35;3.45;;;;;;;10.21;100.00;101125.63;5096739;28;20046;-77
2023/10/05 02:47:29;;;;;;;7.32;3.70;;;;;;;10.25;100.00;101134.84;5078564;28;20036;-77
2023/10/05 02:49:57;;;;;;;7.78;3.20;;;;;;;10.23;100.00;101137.41;5096555;28;20081;-77
2023/10/05 02:52:25;;;;;;;8.43;3.22;;;;;;;10.21;100.00;101135.00;5079422;28;20060;-77
2023/10/05 02:54:51;;;;;;;6.80;2.95;;;;;;;10.21;100.00;101137.88;5096677;28;20522;-78
2023/10/05 02:57:19;;;;;;;6.00;3.38;;;;;;;10.20;100.00;101129.75;5091791;28;20051;-75
2023/10/05 02:59:46;;;;;;;7.55;3.55;;;;;;;10.17;100.00;101122.94;5096369;28;20027;-77
2023/10/05 03:02:16;;;;;;;8.80;3.78;;;;;;;10.16;100.00;101126.25;5078593;28;20436;-78
2023/10/05 03:04:47;;;;;;;8.68;3.70;;;;;;;10.13;100.00;101121.50;5078996;28;20119;-77
2023/10/05 03:07:17;;;;;;;8.02;3.35;;;;;;;10.09;100.00;101125.28;5079499;28;20036;-77
2023/10/05 03:09:47;;;;;;;6.13;3.42;;;;;;;10.09;100.00;101122.41;5096656;28;20035;-76
2023/10/05 03:12:20;;;;;;;9.10;3.40;;;;;;;10.06;100.00;101117.66;5078343;28;20039;-78
2023/10/05 03:14:54;;;;;;;8.45;3.15;;;;;;;10.05;100.00;101112.41;5097096;28;20044;-78
2023/10/05 03:17:22;;;;;;;7.45;3.92;;;;;;;10.02;100.00;101121.91;5096599;28;20028;-79
2023/10/05 03:19:51;;;;;;;7.55;3.60;;;;;;;9.99;100.00;101111.41;5061566;28;20385;-78
2023/10/05 03:22:23;;;;;;;7.55;3.90;;;;;;;9.92;100.00;101097.44;5078658;28;20028;-78
2023/10/05 03:24:53;;;;;;;8.75;3.58;;;;;;;9.94;100.00;101104.25;5095933;28;20453;-78
2023/10/05 03:27:22;;;;;;;8.48;3.50;;;;;;;9.99;100.00;101100.78;5096451;28;20392;-77
2023/10/05 03:29:52;;;;;;;7.88;3.63;;;;;;;10.01;100.00;101101.13;5094648;28;20036;-79
2023/10/05 03:32:19;;;;;;;6.22;3.40;;;;;;;9.96;100.00;101075.25;5096515;28;20028;-78
2023/10/05 03:34:55;;;;;;;5.13;3.22;;;;;;;10.07;100.00;101095.59;5078023;28;20333;-79
2023/10/05 03:37:22;;;;;;;9.38;4.80;;;;;;;10.06;100.00;101097.66;5079248;28;20103;-77
2023/10/05 03:40:07;;;;;;;6.57;3.45;;;;;;;10.05;100.00;101098.13;5093756;28;20060;-75
2023/10/05 03:42:38;;;;;;;6.13;3.25;;;;;;;9.98;100.00;101084.94;5095787;28;20111;-78
2023/10/05 03:45:09;;;;;;;7.00;3.40;;;;;;;10.01;100.00;101095.44;5095975;28;20028;-77
2023/10/05 03:47:40;;;;;;;8.77;2.97;;;;;;;9.97;100.00;101076.84;5095696;28;20028;-78
2023/10/05 03:50:09;;;;;;;4.43;3.25;;;;;;;10.00;100.00;101084.47;5094690;28;20073;-79
2023/10/05 03:52:34;;;;;;;6.40;3.60;;;;;;;9.96;100.00;101081.75;5077312;28;20039;-77
2023/10/05 03:55:11;;;;;;;8.23;3.40;;;;;;;9.98;100.00;101079.25;5095514;28;20389;-79
2023/10/05 03:57:49;;;;;;;7.82;3.65;;;;;;;9.95;100.00;101068.75;5078790;28;20047;-77
2023/10/05 04:02:58;;;;;;;8.82;4.03;;;;;;;9.91;100.00;101056.69;5096489;28;20032;-78
2023/10/05 04:05:25;;;;;;;8.48;3.65;;;;;;;9.95;100.00;101053.66;5096170;28;20028;-79
2023/10/05 04:08:12;;;;;;;10.90;3.42;;;;;;;9.94;100.00;101055.72;5097688;28;20028;-77
2023/10/05 04:10:50;;;;;;;4.97;3.30;;;;;;;9.93;100.00;101042.75;5097399;28;20027;-76
2023/10/05 04:13:24;;;;;;;13.55;3.72;;;;;;;9.93;100.00;101037.03;5094374;28;20024;-78
2023/10/05 04:15:51;;;;;;;10.70;3.72;;;;;;;9.91;100.00;101042.41;5097767;28;20050;-78
2023/10/05 04:18:20;;;;;;;8.68;3.97;;;;;;;9.90;100.00;101037.16;5095058;28;20103;-78
2023/10/05 04:20:47;;;;;;;8.23;4.22;;;;;;;9.90;100.00;101049.38;5097005;28;20055;-77
2023/10/05 04:23:18;;;;;;;8.23;3.47;;;;;;;9.89;100.00;101044.16;5095079;28;20107;-77
2023/10/05 04:25:45;;;;;;;10.82;4.65;;;;;;;9.88;100.00;101037.66;5106203;28;20028;-77
2023/10/05 04:28:11;;;;;;;7.90;3.70;;;;;;;9.88;100.00;101042.56;5102715;28;20026;-76
2023/10/05 04:30:37;;;;;;;7.65;4.53;;;;;;;9.88;100.00;101037.66;5099058;28;20031;-75
2023/10/05 04:33:18;;;;;;;10.80;4.28;;;;;;;9.89;100.00;101041.31;5060493;28;20081;-78
2023/10/05 04:35:51;;;;;;;9.18;4.85;;;;;;;9.89;100.00;101029.88;5093909;28;20020;-76
2023/10/05 04:38:22;;;;;;;9.18;4.30;;;;;;;9.76;100.00;101012.84;5094001;28;20077;-76
2023/10/05 04:40:51;;;;;;;24.52;4.70;;;;;;;9.75;100.00;101002.69;5077032;28;20044;-76
2023/10/05 04:43:20;;;;;;;7.60;4.45;;;;;;;9.95;100.00;101030.84;5094640;28;20032;-75
2023/10/05 04:45:46;;;;;;;10.57;4.40;;;;;;;9.96;100.00;101032.44;5076898;28;20380;-79
2023/10/05 04:48:15;;;;;;;8.23;3.83;;;;;;;9.96;100.00;101023.88;5094852;28;20024;-78
2023/10/05 04:50:42;;;;;;;9.45;4.38;;;;;;;9.97;100.00;101019.75;5095325;28;20182;-79
2023/10/05 04:53:14;;;;;;;10.40;4.72;;;;;;;9.86;100.00;100994.50;5093468;28;20068;-82
2023/10/05 04:55:44;;;;;;;;;;;;;;;9.99;100.00;101018.00;5077607;28;20512;-77
2023/10/05 04:58:24;;;;;;;8.68;3.80;;;;;;;10.00;100.00;101013.88;5094497;28;19908;-83
2023/10/05 05:01:28;;;;;;;8.70;3.78;;;;;;;10.01;100.00;101017.53;5063835;28;20024;-77
2023/10/05 05:04:00;;;;;;;8.75;4.00;;;;;;;10.02;100.00;101019.13;5092063;28;20382;-80
2023/10/05 05:06:32;;;;;;;9.43;4.03;;;;;;;10.03;100.00;101020.72;5094179;28;20046;-79
2023/10/05 05:08:58;;;;;;;8.60;4.55;;;;;;;10.05;100.00;101018.16;5077194;28;20032;-79
2023/10/05 05:11:25;;;;;;;8.27;4.45;;;;;;;10.08;100.00;101023.75;5094221;28;20567;-80
2023/10/05 05:13:54;;;;;;;6.65;4.03;;;;;;;10.12;100.00;101029.31;5075777;28;20044;-77
2023/10/05 05:16:20;;;;;;;11.35;4.88;;;;;;;10.11;100.00;101016.28;5093146;28;20028;-82
2023/10/05 05:18:46;;;;;;;9.68;4.03;;;;;;;10.25;100.00;101029.16;5083122;28;20050;-77
2023/10/05 05:21:12;;;;;;;8.43;3.95;;;;;;;10.21;100.00;101017.91;5093846;28;20035;-80
2023/10/05 05:23:42;;;;;;;12.15;5.22;;;;;;;10.39;100.00;101037.13;5091654;28;20039;-79
2023/10/05 05:26:10;;;;;;;7.13;4.07;;;;;;;10.43;100.00;101037.78;5075468;28;20043;-79
2023/10/05 05:28:39;;;;;;;8.90;4.70;;;;;;;10.41;100.00;101009.69;5094013;28;20094;-80
2023/10/05 05:31:14;;;;;;;7.82;4.32;;;;;;;10.59;100.00;101036.66;5075518;28;20039;-81
2023/10/05 05:33:49;;;;;;;7.10;4.75;;;;;;;10.58;100.00;101027.31;5093306;28;20149;-80
2023/10/05 05:36:21;;;;;;;9.85;4.38;;;;;;;10.62;100.00;101027.97;5087031;28;20040;-81
2023/10/05 05:38:56;;;;;;;8.95;4.70;;;;;;;10.70;100.00;101023.50;5092805;28;20028;-79
2023/10/05 05:41:27;;;;;;;9.63;5.13;;;;;;;10.79;100.00;101022.69;5092885;28;20027;-81
2023/10/05 05:43:59;;;;;;;8.05;4.43;;;;;;;10.91;100.00;101028.28;5092771;28;20024;-80
2023/10/05 05:46:26;;;;;;;5.32;3.88;;;;;;;11.05;100.00;101026.03;5092356;28;20024;-81
2023/10/05 05:48:52;;;;;;;12.90;5.22;;;;;;;11.14;100.00;101028.91;5091714;28;20081;-81
2023/10/05 05:51:22;;;;;;;9.98;4.53;;;;;;;11.21;100.00;101029.38;5092549;28;20081;-80
2023/10/05 05:53:48;;;;;;;10.23;4.47;;;;;;;11.31;100.00;101030.16;5076635;28;20099;-80
2023/10/05 05:56:28;;;;;;;6.28;4.90;;;;;;;11.39;100.00;101025.66;5096024;28;20523;-81
2023/10/05 05:58:54;;;;;;;9.30;4.53;;;;;;;11.50;100.00;101031.69;5097676;28;20112;-79
2023/10/05 06:01:21;;;;;;;13.27;3.65;;;;;;;11.48;100.00;101005.59;5094533;28;20055;-81
2023/10/05 06:03:51;;;;;;;8.13;4.07;;;;;;;11.65;100.00;101015.41;5075896;28;20036;-81
2023/10/05 06:06:31;;;;;;;10.38;4.88;;;;;;;11.70;100.00;101017.63;5094135;28;20030;-81
2023/10/05 06:08:57;;;;;;;8.70;4.65;;;;;;;11.72;100.00;101011.38;5093579;28;20024;-81
2023/10/05 06:11:23;;;;;;;8.52;4.60;;;;;;;11.76;100.00;101017.75;5092740;28;20373;-82
2023/10/05 06:13:52;;;;;;;8.48;4.20;;;;;;;11.72;100.00;101003.59;5074254;28;20036;-82
2023/10/05 06:16:17;;;;;;;11.55;4.90;;;;;;;11.77;100.00;101007.88;5092988;28;20369;-81
2023/10/05 06:18:43;;;;;;;6.15;4.35;;;;;;;11.80;100.00;101013.44;5092878;28;20453;-81
2023/10/05 06:21:17;;;;;;;10.65;4.57;;;;;;;11.86;100.00;101010.72;5092269;28;20032;-80
2023/10/05 06:23:43;;;;;;;8.30;4.10;;;;;;;12.06;100.00;101016.63;5093030;28;20032;-81
2023/10/05 06:26:09;;;;;;;10.00;4.00;;;;;;;12.29;100.00;101020.81;5093040;28;20525;-81
2023/10/05 06:28:44;;;;;;;8.43;3.90;;;;;;;12.57;100.00;101009.94;5091105;28;20032;-82
2023/10/05 06:31:17;;;;;;;9.70;4.40;;;;;;;12.87;100.00;101013.69;5092069;28;20369;-82
2023/10/05 06:33:46;;;;;;;9.05;4.93;;;;;;;13.10;100.00;101010.75;5092299;28;20085;-80
2023/10/05 06:36:18;;;;;;;10.18;4.15;;;;;;;13.37;100.00;101018.28;5091252;28;20036;-80
2023/10/05 06:38:44;;;;;;;9.50;4.63;;;;;;;13.67;100.00;101024.03;5092676;28;20099;-81
2023/10/05 06:41:09;;;;;;;11.70;4.22;;;;;;;13.96;100.00;101015.38;5074320;28;20031;-81
2023/10/05 06:43:36;;;;;;;12.63;4.13;;;;;;;14.39;100.00;101016.50;5092788;28;20020;-82
2023/10/05 06:46:17;;;;;;;9.73;4.03;;;;;;;15.04;100.00;101009.22;5074654;28;20047;-82
2023/10/05 06:48:43;;;;;;;;;;;;;;;16.10;100.00;101019.63;5095218;28;20385;-81
2023/10/05 06:51:13;;;;;;;6.45;3.60;;;;;;;16.91;100.00;101016.06;5098375;28;19919;-80
2023/10/05 06:53:39;;;;;;;9.48;4.55;;;;;;;17.55;100.00;101022.25;5080387;28;20055;-81
2023/10/05 06:56:06;;;;;;;11.85;4.00;;;;;;;18.08;100.00;101009.63;5093635;28;20548;-79
2023/10/05 06:58:32;;;;;;;11.85;3.53;;;;;;;18.53;100.00;100990.84;5093642;28;20085;-81
2023/10/05 07:00:57;;;;;;;10.43;3.83;;;;;;;18.67;100.00;100994.75;5092705;28;20044;-82
2023/10/05 07:03:24;;;;;;;7.00;3.00;;;;;;;18.60;100.00;100990.28;5093138;28;20483;-83
2023/10/05 07:05:50;;;;;;;4.72;2.95;;;;;;;18.58;100.00;100997.91;5095470;28;20477;-82
2023/10/05 07:08:17;;;;;;;4.70;2.88;;;;;;;18.50;100.00;100983.22;5097104;28;20435;-82
2023/10/05 07:10:43;;;;;;;5.53;3.40;;;;;;;18.55;100.00;100991.09;5096744;28;20069;-81
2023/10/05 07:13:09;;;;;;;8.18;3.25;;;;;;;18.55;100.00;100987.41;5096532;28;20477;-81
2023/10/05 07:15:35;;;;;;;10.70;3.67;;;;;;;18.60;100.00;100993.19;5096434;28;20071;-81
2023/10/05 07:18:01;;;;;;;6.95;3.22;;;;;;;18.69;100.00;100998.69;5096180;28;20024;-84
2023/10/05 07:20:27;;;;;;;5.75;3.20;;;;;;;18.84;100.00;100989.66;5078379;28;20038;-81
2023/10/05 07:22:55;;;;;;;8.35;2.90;;;;;;;19.10;100.00;100987.13;5078135;28;20020;-82
2023/10/05 07:25:21;;;;;;;7.88;3.15;;;;;;;19.43;100.00;100983.22;5095901;28;20035;-81
2023/10/05 07:28:01;;;;;;;7.25;2.80;;;;;;;19.72;100.00;100995.38;5096390;28;20028;-80
2023/10/05 07:30:29;;;;;;;6.60;3.45;;;;;;;20.05;100.00;100989.31;5096044;28;20020;-81
2023/10/05 07:32:56;;;;;;;7.40;2.70;;;;;;;20.46;100.00;100994.13;5077845;28;20535;-81
2023/10/05 07:35:22;;;;;;;7.93;2.90;;;;;;;20.70;100.00;100985.38;5096461;28;20043;-83
2023/10/05 07:37:47;;;;;;;9.65;3.22;;;;;;;20.80;100.00;100999.00;5096387;28;20027;-81
2023/10/05 07:40:15;;;;;;;8.07;3.20;;;;;;;20.70;100.00;100991.19;5077471;28;20036;-80
2023/10/05 07:42:41;;;;;;;6.95;2.90;;;;;;;20.67;100.00;100992.28;5096009;28;20373;-83
2023/10/05 07:45:11;;;;;;;6.28;3.22;;;;;;;20.56;100.00;100980.81;5095985;28;20095;-82
2023/10/05 07:47:48;;;;;;;5.55;3.15;;;;;;;20.44;100.00;100994.69;5096027;28;20445;-80
2023/10/05 07:50:15;;;;;;;6.20;2.85;;;;;;;20.37;100.00;100992.38;5095884;28;20465;-81
2023/10/05 07:52:48;;;;;;;9.43;3.58;;;;;;;20.21;100.00;100981.75;5077714;28;20035;-80
2023/10/05 07:55:13;;;;;;;6.80;3.05;;;;;;;20.16;100.00;100980.47;5095579;28;20024;-80
2023/10/05 07:57:40;;;;;;;7.82;2.75;;;;;;;20.10;100.00;100970.28;5074158;28;20050;-82
2023/10/05 08:00:11;;;;;;;5.50;2.97;;;;;;;20.04;100.00;100973.22;5091628;28;20052;-80
2023/10/05 08:02:42;;;;;;;5.72;2.40;;;;;;;20.02;100.00;100983.78;5075747;28;20374;-81
2023/10/05 08:05:09;;;;;;;6.07;2.42;;;;;;;19.96;100.00;100975.94;5074123;28;20037;-81
2023/10/05 08:07:37;;;;;;;5.68;2.83;;;;;;;20.05;100.00;100976.91;5074180;28;20388;-81
2023/10/05 08:10:19;;;;;;;6.03;2.70;;;;;;;20.13;100.00;100969.97;5075239;28;20116;-81
2023/10/05 08:12:48;;;;;;;5.05;2.78;;;;;;;20.37;100.00;100972.06;5075439;28;20020;-80
2023/10/05 08:15:18;;;;;;;7.80;3.00;;;;;;;20.47;100.00;100957.94;5074019;28;20029;-81
2023/10/05 08:17:48;;;;;;;5.68;2.50;;;;;;;20.64;100.00;100970.16;5074753;28;20028;-81
2023/10/05 08:20:17;;;;;;;3.67;2.30;;;;;;;20.70;100.00;100959.22;5074276;28;20024;-83
2023/10/05 08:22:43;;;;;;;4.13;2.70;;;;;;;20.92;100.00;100969.78;5074767;28;20043;-82
2023/10/05 08:25:23;;;;;;;5.95;2.63;;;;;;;21.27;100.00;100963.72;5090424;28;20033;-82
2023/10/05 08:27:51;;;;;;;9.70;2.90;;;;;;;21.59;100.00;100960.84;5075205;28;20021;-81
2023/10/05 08:30:17;;;;;;;7.57;2.80;;;;;;;21.51;100.00;100963.63;5091167;28;20016;-81
2023/10/05 08:32:47;;;;;;;9.57;3.42;;;;;;;21.19;100.00;100962.78;5094872;28;20084;-81
2023/10/05 08:35:14;;;;;;;8.30;3.50;;;;;;;20.80;100.00;100967.03;5092933;28;20029;-81
2023/10/05 08:37:48;;;;;;;9.77;3.38;;;;;;;20.53;100.00;100961.56;5090395;28;20031;-81
2023/10/05 08:40:37;;;;;;;9.50;4.15;;;;;;;20.28;100.00;100964.50;5091501;28;20020;-80
2023/10/05 08:43:16;;;;;;;7.22;3.45;;;;;;;20.19;100.00;100964.09;5092934;28;20035;-82
2023/10/05 08:45:50;;;;;;;7.40;3.50;;;;;;;20.07;100.00;100948.13;5098292;28;20092;-83
2023/10/05 08:48:35;;;;;;;7.00;2.75;;;;;;;20.26;100.00;100949.75;5075596;28;20527;-83
2023/10/05 08:51:10;;;;;;;7.43;3.45;;;;;;;20.36;100.00;100950.16;5077243;28;20036;-82
2023/10/05 08:53:54;;;;;;;7.90;3.00;;;;;;;20.35;100.00;100946.47;5076056;28;20020;-84
2023/10/05 08:56:22;;;;;;;9.63;3.53;;;;;;;20.23;100.00;100950.84;5074191;28;20068;-85
2023/10/05 08:58:48;;;;;;;12.80;4.68;;;;;;;19.99;100.00;100944.25;5074348;28;20032;-81
2023/10/05 09:01:50;;;;;;;9.27;3.95;;;;;;;19.93;100.00;100965.41;5075492;28;20035;-79
2023/10/05 09:04:43;;;;;;;8.88;3.45;;;;;;;19.87;100.00;100953.06;5086990;28;20063;-79
2023/10/05 09:07:25;;;;;;;9.27;3.60;;;;;;;19.90;100.00;100962.81;5080882;28;20488;-78
2023/10/05 09:09:57;;;;;;;6.45;3.08;;;;;;;19.99;100.00;100956.66;5091784;28;20017;-83
2023/10/05 09:12:42;;;;;;;11.73;4.30;;;;;;;20.28;100.00;100960.81;5082701;28;20096;-84
2023/10/05 09:18:25;;;;;;;9.50;3.45;;;;;;;20.27;100.00;100941.81;5075183;28;20385;-83
2023/10/05 09:20:49;;;;;;;12.55;4.13;;;;;;;20.44;100.00;100948.22;5073639;28;20025;-82
2023/10/05 09:23:24;;;;;;;7.85;3.63;;;;;;;20.30;100.00;100964.75;5073043;28;20373;-83
2023/10/05 09:25:51;;;;;;;11.52;4.05;;;;;;;20.15;100.00;100958.56;5074578;28;20020;-85
2023/10/05 09:28:33;;;;;;;11.50;4.20;;;;;;;19.96;100.00;100970.13;5074251;28;20432;-83
2023/10/05 09:31:07;;;;;;;9.57;4.00;;;;;;;19.99;100.00;100971.16;5073739;28;20389;-84
2023/10/05 09:33:36;;;;;;;6.85;2.83;;;;;;;20.12;100.00;100962.56;5075205;28;20118;-83
2023/10/05 09:36:19;;;;;;;6.25;2.90;;;;;;;20.18;100.00;100969.13;5074379;28;20029;-83
2023/10/05 09:38:47;;;;;;;9.27;4.07;;;;;;;20.17;100.00;100967.53;5073439;28;20470;-84
2023/10/05 09:41:17;;;;;;;9.05;3.58;;;;;;;20.00;100.00;100971.97;5073003;28;20096;-87
2023/10/05 09:43:44;;;;;;;8.48;3.65;;;;;;;19.91;100.00;100982.53;5073740;28;20024;-88
2023/10/05 09:46:11;;;;;;;8.30;3.47;;;;;;;19.81;100.00;100974.72;5072645;28;20537;-86
2023/10/05 09:48:37;;;;;;;7.22;3.45;;;;;;;19.70;100.00;100983.56;5091495;28;20032;-84
2023/10/05 09:51:10;;;;;;;8.02;3.42;;;;;;;19.59;100.00;100972.84;5058101;28;20119;-87
2023/10/05 09:53:43;;;;;;;6.43;2.97;;;;;;;19.70;100.00;100986.47;5074253;28;20027;-85
2023/10/05 09:56:12;;;;;;;8.88;3.47;;;;;;;19.86;100.00;100982.59;5074067;28;20098;-87
2023/10/05 09:58:39;;;;;;;7.63;2.92;;;;;;;19.98;100.00;100972.50;5075143;28;20017;-88
2023/10/05 10:01:12;;;;;;;6.57;3.20;;;;;;;20.19;100.00;100969.91;5073486;28;20028;-87
2023/10/05 10:03:47;;;;;;;11.40;3.38;;;;;;;20.23;100.00;100970.38;5075111;28;20017;-86
2023/10/05 10:06:28;;;;;;;13.05;3.60;;;;;;;20.35;100.00;100966.78;5074561;28;20025;-87
2023/10/05 10:09:07;;;;;;;7.28;3.42;;;;;;;20.66;100.00;100976.19;5073259;28;20028;-88
2023/10/05 10:11:35;;;;;;;10.48;3.30;;;;;;;20.80;100.00;100963.34;5074439;28;20020;-88
2023/10/05 10:14:05;;;;;;;8.77;3.75;;;;;;;20.87;100.00;100954.00;5073243;28;20066;-86
2023/10/05 10:16:46;;;;;;;13.05;3.58;;;;;;;20.79;100.00;100970.50;5072733;28;20020;-87
2023/10/05 10:19:22;;;;;;;;;;;;;;;20.63;100.00;100966.47;5073120;28;20025;-88
2023/10/05 10:21:59;;;;;;;12.55;3.50;;;;;;;20.38;100.00;100974.44;5072807;28;19920;-84
2023/10/05 10:24:29;;;;;;;9.05;3.45;;;;;;;20.13;100.00;100946.75;5073708;28;20024;-86
2023/10/05 10:27:11;;;;;;;6.78;4.15;;;;;;;20.14;100.00;100947.53;5040210;28;20052;-86
2023/10/05 10:29:58;;;;;;;10.18;3.92;;;;;;;20.04;100.00;100952.13;5073965;28;20066;-83
2023/10/05 10:32:31;;;;;;;7.90;3.60;;;;;;;20.00;100.00;100945.84;5052845;28;20466;-80
2023/10/05 10:35:09;;;;;;;7.10;3.70;;;;;;;20.00;100.00;100949.53;5052942;28;20017;-80
2023/10/05 10:37:44;;;;;;;8.38;4.03;;;;;;;20.00;100.00;100940.84;5051830;28;20031;-83
2023/10/05 10:43:14;;;;;;;7.97;3.42;;;;;;;19.81;100.00;100939.91;5055709;28;20052;-81
2023/10/05 10:45:46;;;;;;;9.88;4.53;;;;;;;19.78;100.00;100929.41;5056259;28;20486;-79
2023/10/05 10:48:20;;;;;;;7.38;3.60;;;;;;;19.77;100.00;100925.72;5056703;28;20025;-80
2023/10/05 10:50:47;;;;;;;9.55;3.45;;;;;;;19.80;100.00;100929.66;5055488;28;20474;-82
2023/10/05 10:53:17;;;;;;;12.70;3.65;;;;;;;19.85;100.00;100911.41;5071783;28;20359;-80
2023/10/05 10:56:03;;;;;;;9.90;4.35;;;;;;;19.95;100.00;100922.13;5058925;28;20040;-81
2023/10/05 10:58:40;;;;;;;6.40;3.33;;;;;;;20.06;100.00;100909.63;5077090;28;20024;-79
2023/10/05 11:01:13;;;;;;;9.77;3.97;;;;;;;20.26;100.00;100908.31;5076121;28;20462;-77
2023/10/05 11:03:41;;;;;;;10.18;3.63;;;;;;;20.29;100.00;100913.06;5076385;28;20035;-80
2023/10/05 11:06:09;;;;;;;8.52;3.50;;;;;;;20.21;100.00;100909.19;5058591;28;20029;-79
2023/10/05 11:08:45;;;;;;;8.50;3.63;;;;;;;20.00;100.00;100911.03;5076013;28;20064;-78
2023/10/05 11:11:19;;;;;;;7.72;3.53;;;;;;;19.76;100.00;100892.25;5075244;28;20024;-82
2023/10/05 11:13:54;;;;;;;6.32;3.42;;;;;;;19.89;100.00;100889.47;5076184;28;20028;-82
2023/10/05 11:16:45;;;;;;;7.60;3.22;;;;;;;19.82;100.00;100898.78;5061309;28;20401;-82
2023/10/05 11:19:24;;;;;;;6.32;3.15;;;;;;;19.74;100.00;100897.81;5059597;28;20100;-79
2023/10/05 11:21:51;;;;;;;13.15;3.90;;;;;;;19.69;100.00;100898.66;5075628;28;20036;-78
2023/10/05 11:24:18;;;;;;;10.63;3.90;;;;;;;19.58;100.00;100880.56;5074458;28;20166;-77
2023/10/05 11:29:29;;;;;;;12.25;4.25;;;;;;;19.83;100.00;100885.84;5075684;28;20075;-80
2023/10/05 11:32:01;;;;;;;11.43;3.85;;;;;;;20.05;100.00;100890.66;5075728;28;20052;-79
2023/10/05 11:34:39;;;;;;;7.65;3.40;;;;;;;20.03;100.00;100878.78;5058092;28;20032;-78
2023/10/05 11:37:18;;;;;;;10.27;3.97;;;;;;;20.09;100.00;100881.63;5058909;28;20028;-79
2023/10/05 11:39:58;;;;;;;9.75;3.63;;;;;;;20.10;100.00;100889.00;5059422;28;20116;-80
2023/10/05 11:42:41;;;;;;;14.10;3.50;;;;;;;20.21;100.00;100891.75;5058473;28;20048;-79
2023/10/05 11:45:23;;;;;;;7.75;3.30;;;;;;;20.20;100.00;100869.91;5059460;28;20037;-78
2023/10/05 11:47:52;;;;;;;3.30;2.10;;;;;;;20.28;100.00;100876.63;5074706;28;20382;-81
2023/10/05 11:50:25;;;;;;;6.18;2.15;;;;;;;20.31;100.00;100885.03;5056854;28;20036;-79
2023/10/05 11:52:54;;;;;;;5.15;2.13;;;;;;;20.31;95.51;100858.13;5057023;28;20127;-78
2023/10/05 11:55:21;;;;;;;4.00;1.73;;;;;;;20.43;94.38;100876.19;5056229;28;20091;-80
2023/10/05 11:57:48;;;;;;;10.07;2.00;;;;;;;20.45;93.78;100868.47;5082911;28;20036;-81
2023/10/05 12:00:16;;;;;;;5.22;1.80;;;;;;;20.60;95.83;100862.97;5095110;28;20469;-78